sensor_id;sensor_type;location;lat;lon;timestamp;pressure;altitude;pressure_sealevel;temperature;humidity
59791;BME280;47431;51.640;5.554;2023-09-08T00:00:31;102919.28;;;15.64;100.00
59791;BME280;47431;51.640;5.554;2023-09-08T00:02:56;102917.41;;;15.66;100.00
59791;BME280;47431;51.640;5.554;2023-09-08T00:05:22;102913.47;;;15.72;100.00
59791;BME280;47431;51.640;5.554;2023-09-08T00:07:47;102912.44;;;15.75;100.00
59791;BME280;47431;51.640;5.554;2023-09-08T00:10:12;102911.63;;;15.72;100.00
59791;BME280;47431;51.640;5.554;2023-09-08T00:12:38;102910.38;;;15.62;100.00
59791;BME280;47431;51.640;5.554;2023-09-08T00:15:05;102914.06;;;15.43;100.00
59791;BME280;47431;51.640;5.554;2023-09-08T00:17:31;102917.34;;;15.32;100.00
59791;BME280;47431;51.640;5.554;2023-09-08T00:19:57;102919.41;;;15.27;100.00
59791;BME280;47431;51.640;5.554;2023-09-08T00:22:23;102917.81;;;15.23;100.00
59791;BME280;47431;51.640;5.554;2023-09-08T00:24:48;102920.59;;;15.21;100.00
59791;BME280;47431;51.640;5.554;2023-09-08T00:27:13;102917.88;;;15.04;100.00
59791;BME280;47431;51.640;5.554;2023-09-08T00:29:39;102921.13;;;15.11;100.00
59791;BME280;47431;51.640;5.554;2023-09-08T00:32:05;102925.69;;;15.10;100.00
59791;BME280;47431;51.640;5.554;2023-09-08T00:34:30;102925.03;;;15.05;100.00
59791;BME280;47431;51.640;5.554;2023-09-08T00:36:56;102924.25;;;15.03;100.00
59791;BME280;47431;51.640;5.554;2023-09-08T00:39:21;102925.31;;;14.99;100.00
59791;BME280;47431;51.640;5.554;2023-09-08T00:41:47;102928.75;;;15.02;100.00
59791;BME280;47431;51.640;5.554;2023-09-08T00:44:12;102928.03;;;14.99;100.00
59791;BME280;47431;51.640;5.554;2023-09-08T00:46:39;102927.09;;;15.00;100.00
59791;BME280;47431;51.640;5.554;2023-09-08T00:49:05;102932.88;;;14.92;100.00
59791;BME280;47431;51.640;5.554;2023-09-08T00:51:31;102931.22;;;14.89;100.00
59791;BME280;47431;51.640;5.554;2023-09-08T00:53:56;102928.72;;;14.85;100.00
59791;BME280;47431;51.640;5.554;2023-09-08T00:56:23;102927.91;;;14.82;100.00
59791;BME280;47431;51.640;5.554;2023-09-08T00:58:49;102924.69;;;14.74;100.00
59791;BME280;47431;51.640;5.554;2023-09-08T01:01:15;102920.97;;;14.77;100.00
59791;BME280;47431;51.640;5.554;2023-09-08T01:03:42;102922.66;;;14.79;100.00
59791;BME280;47431;51.640;5.554;2023-09-08T01:06:08;102917.25;;;14.79;100.00
59791;BME280;47431;51.640;5.554;2023-09-08T01:08:34;102918.78;;;14.85;100.00
59791;BME280;47431;51.640;5.554;2023-09-08T01:11:00;102915.28;;;14.83;100.00
59791;BME280;47431;51.640;5.554;2023-09-08T01:13:26;102909.72;;;14.86;100.00
59791;BME280;47431;51.640;5.554;2023-09-08T01:15:52;102899.84;;;14.85;100.00
59791;BME280;47431;51.640;5.554;2023-09-08T01:18:17;102909.88;;;14.83;100.00
59791;BME280;47431;51.640;5.554;2023-09-08T01:24:31;102913.75;;;14.77;100.00
59791;BME280;47431;51.640;5.554;2023-09-08T01:26:41;102919.72;;;14.84;100.00
59791;BME280;47431;51.640;5.554;2023-09-08T01:29:11;102911.47;;;14.87;100.00
59791;BME280;47431;51.640;5.554;2023-09-08T01:31:38;102916.00;;;14.87;100.00
59791;BME280;47431;51.640;5.554;2023-09-08T01:34:04;102917.03;;;14.84;100.00
59791;BME280;47431;51.640;5.554;2023-09-08T01:36:33;102907.81;;;14.88;100.00
59791;BME280;47431;51.640;5.554;2023-09-08T01:38:59;102909.50;;;14.91;100.00
59791;BME280;47431;51.640;5.554;2023-09-08T01:41:25;102908.63;;;14.90;100.00
59791;BME280;47431;51.640;5.554;2023-09-08T01:43:50;102912.50;;;14.85;100.00
59791;BME280;47431;51.640;5.554;2023-09-08T01:46:15;102908.91;;;14.84;100.00
59791;BME280;47431;51.640;5.554;2023-09-08T01:48:41;102910.78;;;14.83;100.00
59791;BME280;47431;51.640;5.554;2023-09-08T01:51:06;102901.78;;;14.83;100.00
59791;BME280;47431;51.640;5.554;2023-09-08T01:53:31;102900.97;;;14.81;100.00
59791;BME280;47431;51.640;5.554;2023-09-08T01:55:57;102901.16;;;14.76;100.00
59791;BME280;47431;51.640;5.554;2023-09-08T01:58:22;102892.63;;;14.66;100.00
59791;BME280;47431;51.640;5.554;2023-09-08T02:00:49;102893.75;;;14.62;100.00
59791;BME280;47431;51.640;5.554;2023-09-08T02:03:15;102893.34;;;14.52;100.00
59791;BME280;47431;51.640;5.554;2023-09-08T02:05:41;102895.00;;;14.55;100.00
59791;BME280;47431;51.640;5.554;2023-09-08T02:08:06;102892.72;;;14.45;100.00
59791;BME280;47431;51.640;5.554;2023-09-08T02:10:32;102890.84;;;14.48;100.00
59791;BME280;47431;51.640;5.554;2023-09-08T02:12:58;102888.84;;;14.51;100.00
59791;BME280;47431;51.640;5.554;2023-09-08T02:15:24;102882.66;;;14.49;100.00
59791;BME280;47431;51.640;5.554;2023-09-08T02:17:52;102880.03;;;14.48;100.00
59791;BME280;47431;51.640;5.554;2023-09-08T02:20:18;102883.38;;;14.53;100.00
59791;BME280;47431;51.640;5.554;2023-09-08T02:22:43;102881.63;;;14.52;100.00
59791;BME280;47431;51.640;5.554;2023-09-08T02:25:09;102873.47;;;14.34;100.00
59791;BME280;47431;51.640;5.554;2023-09-08T02:27:34;102877.44;;;14.27;100.00
59791;BME280;47431;51.640;5.554;2023-09-08T02:29:59;102873.56;;;14.32;100.00
59791;BME280;47431;51.640;5.554;2023-09-08T02:32:25;102867.03;;;14.37;100.00
59791;BME280;47431;51.640;5.554;2023-09-08T02:34:50;102871.72;;;14.33;100.00
59791;BME280;47431;51.640;5.554;2023-09-08T02:37:17;102872.03;;;14.27;100.00
59791;BME280;47431;51.640;5.554;2023-09-08T02:39:44;102869.31;;;14.27;100.00
59791;BME280;47431;51.640;5.554;2023-09-08T02:42:09;102863.91;;;14.27;100.00
59791;BME280;47431;51.640;5.554;2023-09-08T02:44:35;102862.88;;;14.29;100.00
59791;BME280;47431;51.640;5.554;2023-09-08T02:47:00;102861.22;;;14.27;100.00
59791;BME280;47431;51.640;5.554;2023-09-08T02:49:26;102860.41;;;14.25;100.00
59791;BME280;47431;51.640;5.554;2023-09-08T02:51:51;102863.09;;;14.25;100.00
59791;BME280;47431;51.640;5.554;2023-09-08T02:54:17;102861.50;;;14.20;100.00
59791;BME280;47431;51.640;5.554;2023-09-08T02:56:42;102861.72;;;14.16;100.00
59791;BME280;47431;51.640;5.554;2023-09-08T02:59:07;102870.22;;;14.08;100.00
59791;BME280;47431;51.640;5.554;2023-09-08T03:01:33;102863.84;;;14.09;100.00
59791;BME280;47431;51.640;5.554;2023-09-08T03:03:58;102853.91;;;14.10;100.00
59791;BME280;47431;51.640;5.554;2023-09-08T03:06:23;102856.53;;;14.11;100.00
59791;BME280;47431;51.640;5.554;2023-09-08T03:08:49;102846.56;;;14.13;100.00
59791;BME280;47431;51.640;5.554;2023-09-08T03:11:14;102842.97;;;14.13;100.00
59791;BME280;47431;51.640;5.554;2023-09-08T03:13:40;102848.28;;;14.14;100.00
59791;BME280;47431;51.640;5.554;2023-09-08T03:16:06;102846.41;;;14.16;100.00
59791;BME280;47431;51.640;5.554;2023-09-08T03:18:35;102846.41;;;14.16;100.00
59791;BME280;47431;51.640;5.554;2023-09-08T03:21:02;102853.19;;;14.06;100.00
59791;BME280;47431;51.640;5.554;2023-09-08T03:23:36;102838.88;;;14.04;100.00
59791;BME280;47431;51.640;5.554;2023-09-08T03:26:02;102843.03;;;14.11;100.00
59791;BME280;47431;51.640;5.554;2023-09-08T03:28:27;102831.38;;;14.11;100.00
59791;BME280;47431;51.640;5.554;2023-09-08T03:30:52;102836.78;;;14.11;100.00
59791;BME280;47431;51.640;5.554;2023-09-08T03:33:18;102828.81;;;14.07;100.00
59791;BME280;47431;51.640;5.554;2023-09-08T03:35:43;102825.25;;;14.07;100.00
59791;BME280;47431;51.640;5.554;2023-09-08T03:38:09;102824.31;;;14.08;100.00
59791;BME280;47431;51.640;5.554;2023-09-08T03:40:35;102821.38;;;14.13;100.00
59791;BME280;47431;51.640;5.554;2023-09-08T03:43:00;102822.25;;;14.13;100.00
59791;BME280;47431;51.640;5.554;2023-09-08T03:45:25;102814.91;;;14.17;100.00
59791;BME280;47431;51.640;5.554;2023-09-08T03:47:51;102812.34;;;14.14;100.00
59791;BME280;47431;51.640;5.554;2023-09-08T03:50:16;102812.25;;;14.15;100.00
59791;BME280;47431;51.640;5.554;2023-09-08T03:52:41;102804.00;;;14.18;100.00
59791;BME280;47431;51.640;5.554;2023-09-08T03:55:07;102807.00;;;14.12;100.00
59791;BME280;47431;51.640;5.554;2023-09-08T03:57:32;102800.50;;;14.16;100.00
59791;BME280;47431;51.640;5.554;2023-09-08T03:59:58;102800.50;;;14.16;100.00
59791;BME280;47431;51.640;5.554;2023-09-08T04:02:23;102796.13;;;14.14;100.00
59791;BME280;47431;51.640;5.554;2023-09-08T04:04:48;102798.97;;;14.11;100.00
59791;BME280;47431;51.640;5.554;2023-09-08T04:07:14;102795.53;;;14.07;100.00
59791;BME280;47431;51.640;5.554;2023-09-08T04:09:39;102798.38;;;14.04;100.00
59791;BME280;47431;51.640;5.554;2023-09-08T04:12:05;102791.03;;;14.07;100.00
59791;BME280;47431;51.640;5.554;2023-09-08T04:14:30;102785.63;;;14.07;100.00
59791;BME280;47431;51.640;5.554;2023-09-08T04:16:58;102789.28;;;14.06;100.00
59791;BME280;47431;51.640;5.554;2023-09-08T04:19:24;102785.03;;;14.01;100.00
59791;BME280;47431;51.640;5.554;2023-09-08T04:21:49;102783.97;;;14.05;100.00
59791;BME280;47431;51.640;5.554;2023-09-08T04:24:14;102781.41;;;14.02;100.00
59791;BME280;47431;51.640;5.554;2023-09-08T04:26:40;102782.59;;;13.96;100.00
59791;BME280;47431;51.640;5.554;2023-09-08T04:29:05;102773.75;;;13.92;100.00
59791;BME280;47431;51.640;5.554;2023-09-08T04:31:30;102776.22;;;13.97;100.00
59791;BME280;47431;51.640;5.554;2023-09-08T04:33:56;102776.16;;;13.99;100.00
59791;BME280;47431;51.640;5.554;2023-09-08T04:36:21;102772.63;;;13.97;100.00
59791;BME280;47431;51.640;5.554;2023-09-08T04:38:47;102771.78;;;13.96;100.00
59791;BME280;47431;51.640;5.554;2023-09-08T04:41:12;102770.22;;;13.90;100.00
59791;BME280;47431;51.640;5.554;2023-09-08T04:43:37;102769.22;;;13.93;100.00
59791;BME280;47431;51.640;5.554;2023-09-08T04:46:03;102780.88;;;13.93;100.00
59791;BME280;47431;51.640;5.554;2023-09-08T04:48:29;102781.78;;;13.94;100.00
59791;BME280;47431;51.640;5.554;2023-09-08T04:50:56;102782.78;;;13.91;100.00
59791;BME280;47431;51.640;5.554;2023-09-08T04:53:21;102773.59;;;13.95;100.00
59791;BME280;47431;51.640;5.554;2023-09-08T04:55:47;102771.78;;;13.96;100.00
59791;BME280;47431;51.640;5.554;2023-09-08T04:58:12;102773.47;;;13.99;100.00
59791;BME280;47431;51.640;5.554;2023-09-08T05:00:38;102778.19;;;13.93;100.00
59791;BME280;47431;51.640;5.554;2023-09-08T05:03:05;102776.50;;;13.91;100.00
59791;BME280;47431;51.640;5.554;2023-09-08T05:05:30;102779.22;;;13.91;100.00
59791;BME280;47431;51.640;5.554;2023-09-08T05:07:55;102777.31;;;13.93;100.00
59791;BME280;47431;51.640;5.554;2023-09-08T05:10:22;102783.72;;;13.90;100.00
59791;BME280;47431;51.640;5.554;2023-09-08T05:12:48;102781.84;;;13.92;100.00
59791;BME280;47431;51.640;5.554;2023-09-08T05:15:15;102786.28;;;13.93;100.00
59791;BME280;47431;51.640;5.554;2023-09-08T05:17:41;102772.50;;;14.00;100.00
59791;BME280;47431;51.640;5.554;2023-09-08T05:20:07;102781.13;;;14.08;100.00
59791;BME280;47431;51.640;5.554;2023-09-08T05:22:33;102784.59;;;14.10;100.00
59791;BME280;47431;51.640;5.554;2023-09-08T05:24:58;102785.34;;;14.14;100.00
59791;BME280;47431;51.640;5.554;2023-09-08T05:27:24;102784.16;;;14.19;100.00
59791;BME280;47431;51.640;5.554;2023-09-08T05:29:49;102793.34;;;14.35;100.00
59791;BME280;47431;51.640;5.554;2023-09-08T05:32:15;102787.22;;;14.49;100.00
59791;BME280;47431;51.640;5.554;2023-09-08T05:34:40;102780.88;;;14.67;100.00
59791;BME280;47431;51.640;5.554;2023-09-08T05:37:05;102785.41;;;14.86;100.00
59791;BME280;47431;51.640;5.554;2023-09-08T05:39:31;102789.13;;;15.01;100.00
59791;BME280;47431;51.640;5.554;2023-09-08T05:41:56;102789.09;;;15.19;100.00
59791;BME280;47431;51.640;5.554;2023-09-08T05:44:22;102787.50;;;15.32;100.00
59791;BME280;47431;51.640;5.554;2023-09-08T05:46:47;102796.19;;;15.55;100.00
59791;BME280;47431;51.640;5.554;2023-09-08T05:49:12;102794.72;;;15.66;100.00
59791;BME280;47431;51.640;5.554;2023-09-08T05:51:39;102796.84;;;15.77;100.00
59791;BME280;47431;51.640;5.554;2023-09-08T05:54:05;102797.06;;;16.06;100.00
59791;BME280;47431;51.640;5.554;2023-09-08T05:56:31;102801.25;;;16.28;100.00
59791;BME280;47431;51.640;5.554;2023-09-08T05:58:57;102804.41;;;16.36;100.00
59791;BME280;47431;51.640;5.554;2023-09-08T06:01:22;102814.09;;;16.40;100.00
59791;BME280;47431;51.640;5.554;2023-09-08T06:03:48;102821.47;;;16.53;100.00
59791;BME280;47431;51.640;5.554;2023-09-08T06:06:13;102832.69;;;16.63;100.00
59791;BME280;47431;51.640;5.554;2023-09-08T06:08:38;102842.09;;;16.71;100.00
59791;BME280;47431;51.640;5.554;2023-09-08T06:11:04;102848.81;;;16.80;100.00
59791;BME280;47431;51.640;5.554;2023-09-08T06:13:29;102863.22;;;16.81;100.00
59791;BME280;47431;51.640;5.554;2023-09-08T06:15:54;102868.03;;;16.92;100.00
59791;BME280;47431;51.640;5.554;2023-09-08T06:18:20;102868.25;;;17.03;100.00
59791;BME280;47431;51.640;5.554;2023-09-08T06:20:46;102868.50;;;17.15;100.00
59791;BME280;47431;51.640;5.554;2023-09-08T06:23:12;102867.31;;;17.35;100.00
59791;BME280;47431;51.640;5.554;2023-09-08T06:25:38;102868.38;;;17.47;100.00
59791;BME280;47431;51.640;5.554;2023-09-08T06:28:04;102872.56;;;17.53;100.00
59791;BME280;47431;51.640;5.554;2023-09-08T06:30:29;102880.69;;;17.53;100.00
59791;BME280;47431;51.640;5.554;2023-09-08T06:32:55;102892.38;;;17.69;100.00
59791;BME280;47431;51.640;5.554;2023-09-08T06:35:20;102887.03;;;17.82;100.00
59791;BME280;47431;51.640;5.554;2023-09-08T06:37:46;102899.16;;;17.91;100.00
59791;BME280;47431;51.640;5.554;2023-09-08T06:40:11;102914.47;;;18.07;100.00
59791;BME280;47431;51.640;5.554;2023-09-08T06:42:36;102913.88;;;18.31;100.00
59791;BME280;47431;51.640;5.554;2023-09-08T06:45:02;102920.28;;;18.44;100.00
59791;BME280;47431;51.640;5.554;2023-09-08T06:47:27;102928.31;;;18.46;100.00
59791;BME280;47431;51.640;5.554;2023-09-08T06:49:53;102927.16;;;18.78;100.00
59791;BME280;47431;51.640;5.554;2023-09-08T06:52:18;102936.53;;;18.86;100.00
59791;BME280;47431;51.640;5.554;2023-09-08T06:54:44;102946.69;;;19.12;100.00
59791;BME280;47431;51.640;5.554;2023-09-08T06:57:12;102952.22;;;19.38;100.00
59791;BME280;47431;51.640;5.554;2023-09-08T06:59:37;102954.84;;;19.52;100.00
59791;BME280;47431;51.640;5.554;2023-09-08T07:02:03;102965.63;;;19.67;100.00
59791;BME280;47431;51.640;5.554;2023-09-08T07:04:29;102968.81;;;20.00;100.00
59791;BME280;47431;51.640;5.554;2023-09-08T07:06:55;102960.38;;;20.42;100.00
59791;BME280;47431;51.640;5.554;2023-09-08T07:09:20;102969.47;;;20.30;100.00
59791;BME280;47431;51.640;5.554;2023-09-08T07:11:46;102990.19;;;20.32;100.00
59791;BME280;47431;51.640;5.554;2023-09-08T07:14:12;102988.72;;;20.52;100.00
59791;BME280;47431;51.640;5.554;2023-09-08T07:16:37;102994.59;;;20.59;100.00
59791;BME280;47431;51.640;5.554;2023-09-08T07:19:03;103006.72;;;20.55;100.00
59791;BME280;47431;51.640;5.554;2023-09-08T07:21:28;103012.81;;;20.59;100.00
59791;BME280;47431;51.640;5.554;2023-09-08T07:23:53;103008.53;;;20.68;100.00
59791;BME280;47431;51.640;5.554;2023-09-08T07:26:19;103013.56;;;21.11;100.00
59791;BME280;47431;51.640;5.554;2023-09-08T07:28:45;103006.28;;;20.99;100.00
59791;BME280;47431;51.640;5.554;2023-09-08T07:31:11;102999.38;;;21.31;100.00
59791;BME280;47431;51.640;5.554;2023-09-08T07:33:37;102997.13;;;21.60;100.00
59791;BME280;47431;51.640;5.554;2023-09-08T07:36:06;102981.91;;;21.92;100.00
59791;BME280;47431;51.640;5.554;2023-09-08T07:38:32;102980.53;;;21.98;100.00
59791;BME280;47431;51.640;5.554;2023-09-08T07:40:57;102982.06;;;22.59;100.00
59791;BME280;47431;51.640;5.554;2023-09-08T07:43:25;102990.34;;;22.80;100.00
59791;BME280;47431;51.640;5.554;2023-09-08T07:45:51;102993.09;;;22.69;100.00
59791;BME280;47431;51.640;5.554;2023-09-08T07:48:16;103006.97;;;23.00;100.00
59791;BME280;47431;51.640;5.554;2023-09-08T07:50:42;103009.50;;;22.80;100.00
59791;BME280;47431;51.640;5.554;2023-09-08T07:53:07;103008.81;;;23.00;100.00
59791;BME280;47431;51.640;5.554;2023-09-08T07:55:33;103021.16;;;22.94;100.00
59791;BME280;47431;51.640;5.554;2023-09-08T07:57:58;103022.19;;;23.26;100.00
59791;BME280;47431;51.640;5.554;2023-09-08T08:00:24;103022.25;;;23.36;100.00
59791;BME280;47431;51.640;5.554;2023-09-08T08:02:52;103024.25;;;23.34;100.00
59791;BME280;47431;51.640;5.554;2023-09-08T08:05:18;103025.53;;;23.84;100.00
59791;BME280;47431;51.640;5.554;2023-09-08T08:07:44;103023.19;;;24.31;100.00
59791;BME280;47431;51.640;5.554;2023-09-08T08:10:10;103022.34;;;24.82;100.00
59791;BME280;47431;51.640;5.554;2023-09-08T08:12:37;103016.06;;;25.61;100.00
59791;BME280;47431;51.640;5.554;2023-09-08T08:15:03;103000.06;;;26.42;100.00
59791;BME280;47431;51.640;5.554;2023-09-08T08:17:29;102670.63;;;26.61;100.00
59791;BME280;47431;51.640;5.554;2023-09-08T08:19:56;102148.34;;;27.03;100.00
59791;BME280;47431;51.640;5.554;2023-09-08T08:22:24;101979.16;;;27.91;100.00
59791;BME280;47431;51.640;5.554;2023-09-08T08:24:49;102056.22;;;28.31;100.00
59791;BME280;47431;51.640;5.554;2023-09-08T08:27:15;102281.72;;;28.14;100.00
59791;BME280;47431;51.640;5.554;2023-09-08T08:29:40;102260.31;;;28.86;100.00
59791;BME280;47431;51.640;5.554;2023-09-08T08:32:06;102476.44;;;28.65;100.00
59791;BME280;47431;51.640;5.554;2023-09-08T08:34:31;102524.63;;;29.17;100.00
59791;BME280;47431;51.640;5.554;2023-09-08T08:36:57;102536.84;;;29.55;100.00
59791;BME280;47431;51.640;5.554;2023-09-08T08:39:22;102494.84;;;30.65;100.00
59791;BME280;47431;51.640;5.554;2023-09-08T08:41:47;102575.47;;;30.85;100.00
59791;BME280;47431;51.640;5.554;2023-09-08T08:44:15;102469.13;;;32.16;100.00
59791;BME280;47431;51.640;5.554;2023-09-08T08:46:43;102451.28;;;33.35;100.00
59791;BME280;47431;51.640;5.554;2023-09-08T08:49:09;102551.03;;;33.59;100.00
59791;BME280;47431;51.640;5.554;2023-09-08T08:51:36;102562.75;;;34.28;100.00
59791;BME280;47431;51.640;5.554;2023-09-08T08:54:03;102708.44;;;34.02;100.00
59791;BME280;47431;51.640;5.554;2023-09-08T08:56:31;102678.03;;;34.41;100.00
59791;BME280;47431;51.640;5.554;2023-09-08T08:58:57;102639.00;;;35.14;100.00
59791;BME280;47431;51.640;5.554;2023-09-08T09:01:24;102558.25;;;35.84;100.00
59791;BME280;47431;51.640;5.554;2023-09-08T09:03:51;102565.22;;;36.56;100.00
59791;BME280;47431;51.640;5.554;2023-09-08T09:06:17;102463.66;;;37.72;100.00
59791;BME280;47431;51.640;5.554;2023-09-08T09:08:43;102601.50;;;37.31;100.00
59791;BME280;47431;51.640;5.554;2023-09-08T09:11:10;102450.28;;;38.27;100.00
59791;BME280;47431;51.640;5.554;2023-09-08T09:13:35;102564.81;;;38.11;100.00
59791;BME280;47431;51.640;5.554;2023-09-08T09:16:01;102601.75;;;38.20;100.00
59791;BME280;47431;51.640;5.554;2023-09-08T09:18:29;102505.88;;;38.47;100.00
59791;BME280;47431;51.640;5.554;2023-09-08T09:20:58;102533.56;;;38.55;100.00
59791;BME280;47431;51.640;5.554;2023-09-08T09:23:31;102469.09;;;39.02;100.00
59791;BME280;47431;51.640;5.554;2023-09-08T09:25:57;102565.00;;;39.62;100.00
59791;BME280;47431;51.640;5.554;2023-09-08T09:28:23;102569.53;;;40.20;100.00
59791;BME280;47431;51.640;5.554;2023-09-08T09:30:51;102506.84;;;40.69;100.00
59791;BME280;47431;51.640;5.554;2023-09-08T09:33:17;102582.06;;;41.02;100.00
59791;BME280;47431;51.640;5.554;2023-09-08T09:35:48;102728.88;;;40.54;100.00
59791;BME280;47431;51.640;5.554;2023-09-08T09:38:15;102799.47;;;39.60;100.00
59791;BME280;47431;51.640;5.554;2023-09-08T09:40:42;102890.38;;;38.51;100.00
59791;BME280;47431;51.640;5.554;2023-09-08T09:43:08;102791.31;;;38.81;100.00
59791;BME280;47431;51.640;5.554;2023-09-08T09:45:34;102641.69;;;39.51;100.00
59791;BME280;47431;51.640;5.554;2023-09-08T09:48:00;102592.81;;;39.98;100.00
59791;BME280;47431;51.640;5.554;2023-09-08T09:50:35;102563.94;;;40.92;100.00
59791;BME280;47431;51.640;5.554;2023-09-08T09:53:07;102767.63;;;40.52;100.00
59791;BME280;47431;51.640;5.554;2023-09-08T09:55:33;102574.88;;;41.82;100.00
59791;BME280;47431;51.640;5.554;2023-09-08T09:57:59;102762.28;;;40.90;100.00
59791;BME280;47431;51.640;5.554;2023-09-08T10:00:27;102830.38;;;40.52;100.00
59791;BME280;47431;51.640;5.554;2023-09-08T10:02:54;102676.38;;;41.04;100.00
59791;BME280;47431;51.640;5.554;2023-09-08T10:05:20;102625.81;;;41.42;100.00
59791;BME280;47431;51.640;5.554;2023-09-08T10:07:47;102802.28;;;41.59;100.00
59791;BME280;47431;51.640;5.554;2023-09-08T10:10:14;102760.91;;;41.87;100.00
59791;BME280;47431;51.640;5.554;2023-09-08T10:12:43;102767.84;;;41.29;100.00
59791;BME280;47431;51.640;5.554;2023-09-08T10:15:10;102703.03;;;42.12;100.00
59791;BME280;47431;51.640;5.554;2023-09-08T10:17:36;102694.84;;;42.11;100.00
59791;BME280;47431;51.640;5.554;2023-09-08T10:20:02;102900.38;;;41.23;100.00
59791;BME280;47431;51.640;5.554;2023-09-08T10:22:38;102740.31;;;41.59;100.00
59791;BME280;47431;51.640;5.554;2023-09-08T10:25:05;102858.19;;;41.05;100.00
59791;BME280;47431;51.640;5.554;2023-09-08T10:27:31;102607.19;;;42.71;100.00
59791;BME280;47431;51.640;5.554;2023-09-08T10:30:02;102754.81;;;42.01;100.00
59791;BME280;47431;51.640;5.554;2023-09-08T10:32:28;102732.38;;;42.54;100.00
59791;BME280;47431;51.640;5.554;2023-09-08T10:34:58;102830.53;;;42.52;100.00
59791;BME280;47431;51.640;5.554;2023-09-08T10:37:26;102844.22;;;42.33;100.00
59791;BME280;47431;51.640;5.554;2023-09-08T10:39:55;102639.81;;;43.31;100.00
59791;BME280;47431;51.640;5.554;2023-09-08T10:42:24;102765.72;;;43.11;100.00
59791;BME280;47431;51.640;5.554;2023-09-08T10:44:59;102747.94;;;43.16;100.00
59791;BME280;47431;51.640;5.554;2023-09-08T10:47:31;102690.06;;;43.29;100.00
59791;BME280;47431;51.640;5.554;2023-09-08T10:49:59;102614.38;;;43.36;100.00
59791;BME280;47431;51.640;5.554;2023-09-08T10:52:25;102667.22;;;43.25;100.00
59791;BME280;47431;51.640;5.554;2023-09-08T10:54:52;102810.06;;;43.11;100.00
59791;BME280;47431;51.640;5.554;2023-09-08T10:57:20;102795.78;;;43.54;100.00
59791;BME280;47431;51.640;5.554;2023-09-08T11:05:13;102664.44;;;43.67;100.00
59791;BME280;47431;51.640;5.554;2023-09-08T11:07:40;102414.50;;;45.88;100.00
59791;BME280;47431;51.640;5.554;2023-09-08T11:10:06;102731.41;;;44.39;100.00
59791;BME280;47431;51.640;5.554;2023-09-08T11:12:33;102863.56;;;43.49;100.00
59791;BME280;47431;51.640;5.554;2023-09-08T11:14:59;102695.78;;;43.86;100.00
59791;BME280;47431;51.640;5.554;2023-09-08T11:17:31;102992.25;;;42.08;100.00
59791;BME280;47431;51.640;5.554;2023-09-08T11:19:57;102946.69;;;42.44;100.00
59791;BME280;47431;51.640;5.554;2023-09-08T11:22:24;102919.31;;;42.44;100.00
59791;BME280;47431;51.640;5.554;2023-09-08T11:24:53;103028.94;;;41.68;100.00
59791;BME280;47431;51.640;5.554;2023-09-08T11:27:20;102942.69;;;41.90;100.00
59791;BME280;47431;51.640;5.554;2023-09-08T11:29:46;102757.31;;;43.27;100.00
59791;BME280;47431;51.640;5.554;2023-09-08T11:32:12;102903.25;;;43.16;100.00
59791;BME280;47431;51.640;5.554;2023-09-08T11:34:38;102884.44;;;42.56;100.00
59791;BME280;47431;51.640;5.554;2023-09-08T11:37:13;102825.19;;;43.53;100.00
59791;BME280;47431;51.640;5.554;2023-09-08T11:39:45;102914.38;;;43.38;100.00
59791;BME280;47431;51.640;5.554;2023-09-08T11:42:13;102868.19;;;43.65;100.00
59791;BME280;47431;51.640;5.554;2023-09-08T11:44:39;102949.25;;;43.59;100.00
59791;BME280;47431;51.640;5.554;2023-09-08T11:47:09;102931.66;;;43.04;100.00
59791;BME280;47431;51.640;5.554;2023-09-08T11:49:36;103015.38;;;42.88;100.00
59791;BME280;47431;51.640;5.554;2023-09-08T11:52:03;102962.03;;;42.86;100.00
59791;BME280;47431;51.640;5.554;2023-09-08T11:54:29;103040.97;;;42.26;100.00
59791;BME280;47431;51.640;5.554;2023-09-08T11:56:57;102999.69;;;42.42;100.00
59791;BME280;47431;51.640;5.554;2023-09-08T11:59:25;103019.44;;;42.42;100.00
59791;BME280;47431;51.640;5.554;2023-09-08T12:01:51;102899.63;;;42.82;100.00
59791;BME280;47431;51.640;5.554;2023-09-08T12:04:17;102912.81;;;43.09;100.00
59791;BME280;47431;51.640;5.554;2023-09-08T12:06:44;102942.25;;;42.86;100.00
59791;BME280;47431;51.640;5.554;2023-09-08T12:09:09;102959.78;;;43.26;100.00
59791;BME280;47431;51.640;5.554;2023-09-08T12:11:35;102748.63;;;43.80;100.00
59791;BME280;47431;51.640;5.554;2023-09-08T12:14:06;102785.16;;;44.39;100.00
59791;BME280;47431;51.640;5.554;2023-09-08T12:16:32;102554.88;;;46.53;100.00
59791;BME280;47431;51.640;5.554;2023-09-08T12:18:57;102934.94;;;43.87;100.00
59791;BME280;47431;51.640;5.554;2023-09-08T12:21:23;103044.13;;;43.12;100.00
59791;BME280;47431;51.640;5.554;2023-09-08T12:23:49;102967.81;;;42.41;100.00
59791;BME280;47431;51.640;5.554;2023-09-08T12:26:16;103047.00;;;42.12;100.00
59791;BME280;47431;51.640;5.554;2023-09-08T12:28:45;103168.59;;;41.01;100.00
59791;BME280;47431;51.640;5.554;2023-09-08T12:31:13;103115.47;;;40.10;100.00
59791;BME280;47431;51.640;5.554;2023-09-08T12:33:39;102979.88;;;40.78;100.00
59791;BME280;47431;51.640;5.554;2023-09-08T12:36:13;102970.34;;;40.33;100.00
59791;BME280;47431;51.640;5.554;2023-09-08T12:38:39;103101.41;;;39.08;100.00
59791;BME280;47431;51.640;5.554;2023-09-08T12:41:04;102963.94;;;39.19;100.00
59791;BME280;47431;51.640;5.554;2023-09-08T12:43:30;103107.03;;;39.08;100.00